createdAt,value
2022-10-02T00:00:39.095Z,79.58
2022-10-02T00:03:28.568Z,79.96
2022-10-02T00:06:15.113Z,80.54
2022-10-02T00:08:43.358Z,80.21
2022-10-02T00:11:23.144Z,80.19
2022-10-02T00:13:57.835Z,79.74
2022-10-02T00:16:35.440Z,79.75
2022-10-02T00:19:04.014Z,79.53
2022-10-02T00:21:48.394Z,80.22
2022-10-02T00:24:22.487Z,80.55
2022-10-02T00:27:29.089Z,80.11
2022-10-02T00:30:02.170Z,80.87
2022-10-02T00:32:45.230Z,80.41
2022-10-02T00:35:33.889Z,80.50
2022-10-02T00:38:25.983Z,79.53
2022-10-02T00:41:14.737Z,80.17
2022-10-02T00:44:03.331Z,79.97
2022-10-02T00:46:43.822Z,80.25
2022-10-02T00:49:20.295Z,80.97
2022-10-02T00:52:23.290Z,80.67
2022-10-02T00:55:36.384Z,79.92
2022-10-02T00:58:28.986Z,79.49
2022-10-02T01:01:22.769Z,79.82
2022-10-02T01:03:56.575Z,79.80
2022-10-02T01:06:28.249Z,79.63
2022-10-02T01:08:56.506Z,79.22
2022-10-02T01:11:27.076Z,79.02
2022-10-02T01:13:54.946Z,79.70
2022-10-02T01:16:22.631Z,79.68
2022-10-02T01:18:51.204Z,79.11
2022-10-02T01:21:41.563Z,79.59
2022-10-02T01:24:39.561Z,79.46
2022-10-02T01:27:07.242Z,80.07
2022-10-02T01:29:35.193Z,79.55
2022-10-02T01:32:02.791Z,79.40
2022-10-02T01:34:31.437Z,78.94
2022-10-02T01:36:59.592Z,79.54
2022-10-02T01:39:28.184Z,78.98
2022-10-02T01:41:56.216Z,79.44
2022-10-02T01:44:26.581Z,79.01
2022-10-02T01:47:22.462Z,79.18
2022-10-02T01:49:55.754Z,79.70
2022-10-02T01:52:37.341Z,80.02
2022-10-02T01:55:38.522Z,79.46
2022-10-02T01:58:17.185Z,79.37
2022-10-02T02:01:13.895Z,79.37
2022-10-02T02:03:59.618Z,79.49
2022-10-02T02:06:37.673Z,79.31
2022-10-02T02:09:19.363Z,78.89
2022-10-02T02:11:58.555Z,79.10
2022-10-02T02:14:36.201Z,79.10
2022-10-02T02:17:15.174Z,78.94
2022-10-02T02:20:02.736Z,79.16
2022-10-02T02:22:51.906Z,79.50
2022-10-02T02:25:29.258Z,79.76
2022-10-02T02:28:02.309Z,79.53
2022-10-02T02:30:32.788Z,79.38
2022-10-02T02:33:26.657Z,79.74
2022-10-02T02:36:03.572Z,80.27
2022-10-02T02:38:42.153Z,81.27
2022-10-02T02:41:33.931Z,81.15
2022-10-02T02:44:36.297Z,82.38
2022-10-02T02:47:26.358Z,82.38
2022-10-02T02:49:59.119Z,82.39
2022-10-02T02:52:57.909Z,82.25
2022-10-02T02:55:45.298Z,82.79
2022-10-02T02:58:18.819Z,82.86
2022-10-02T03:00:46.629Z,82.74
2022-10-02T03:03:14.239Z,83.04
2022-10-02T03:05:49.340Z,83.07
2022-10-02T03:08:28.275Z,83.07
2022-10-02T03:11:10.802Z,83.85
2022-10-02T03:14:01.612Z,83.27
2022-10-02T03:16:38.202Z,83.59
2022-10-02T03:19:37.268Z,84.36
2022-10-02T03:22:19.307Z,84.23
2022-10-02T03:25:31.891Z,84.29
2022-10-02T03:28:37.415Z,84.08
2022-10-02T03:31:07.378Z,84.14
2022-10-02T03:33:39.139Z,83.93
2022-10-02T03:36:07.267Z,84.34
2022-10-02T03:38:36.252Z,84.74
2022-10-02T03:41:03.822Z,84.50
2022-10-02T03:43:31.883Z,84.42
2022-10-02T03:45:59.421Z,84.38
2022-10-02T03:48:27.184Z,84.49
2022-10-02T03:50:54.896Z,84.68
2022-10-02T03:53:36.868Z,84.11
2022-10-02T03:56:13.612Z,84.01
2022-10-02T03:58:47.041Z,84.54
2022-10-02T04:01:54.272Z,84.84
2022-10-02T04:04:31.527Z,85.51
2022-10-02T04:07:04.965Z,85.46
2022-10-02T04:09:43.244Z,85.64
2022-10-02T04:12:26.855Z,85.65
2022-10-02T04:15:08.901Z,85.22
2022-10-02T04:17:58.208Z,84.88
2022-10-02T04:20:56.058Z,85.49
2022-10-02T04:23:52.683Z,85.40
2022-10-02T04:26:33.522Z,85.26
2022-10-02T04:29:24.791Z,85.02
2022-10-02T04:32:01.544Z,85.04
2022-10-02T04:34:29.360Z,84.99
2022-10-02T04:37:36.185Z,84.50
2022-10-02T04:40:07.446Z,83.83
2022-10-02T04:42:40.388Z,84.69
2022-10-02T04:45:37.811Z,84.75
2022-10-02T04:48:33.361Z,84.15
2022-10-02T04:51:20.020Z,84.48
2022-10-02T04:54:17.117Z,84.77
2022-10-02T04:56:54.167Z,85.35
2022-10-02T04:59:30.727Z,85.24
2022-10-02T05:02:27.216Z,85.03
2022-10-02T05:05:32.092Z,85.45
2022-10-02T05:08:16.752Z,85.79
2022-10-02T05:11:11.221Z,85.89
2022-10-02T05:13:47.945Z,85.41
2022-10-02T05:16:26.953Z,85.64
2022-10-02T05:19:36.850Z,85.63
2022-10-02T05:22:31.201Z,85.47
2022-10-02T05:25:01.654Z,85.95
2022-10-02T05:27:39.021Z,86.37
2022-10-02T05:30:18.711Z,86.69
2022-10-02T05:33:16.710Z,86.39
2022-10-02T05:35:47.676Z,86.36
2022-10-02T05:38:24.799Z,86.07
2022-10-02T05:41:08.948Z,85.99
2022-10-02T05:43:52.623Z,85.92
2022-10-02T05:46:37.465Z,85.51
2022-10-02T05:49:35.073Z,85.33
2022-10-02T05:52:22.955Z,85.17
2022-10-02T05:54:58.754Z,84.32
2022-10-02T05:57:42.389Z,83.56
2022-10-02T06:00:26.578Z,82.78
2022-10-02T06:03:17.575Z,81.81
2022-10-02T06:05:56.656Z,82.56
2022-10-02T06:08:41.266Z,82.24
2022-10-02T06:11:20.404Z,82.23
2022-10-02T06:13:58.902Z,81.88
2022-10-02T06:16:43.005Z,81.90
2022-10-02T06:19:29.197Z,82.18
2022-10-02T06:22:21.495Z,82.61
2022-10-02T06:25:15.397Z,82.24
2022-10-02T06:28:07.589Z,82.06
2022-10-02T06:30:41.251Z,81.97
2022-10-02T06:33:25.288Z,81.85
2022-10-02T06:36:34.959Z,81.37
2022-10-02T06:39:17.950Z,82.59
2022-10-02T06:42:21.732Z,82.25
2022-10-02T06:45:24.730Z,81.88
2022-10-02T06:48:05.703Z,81.20
2022-10-02T06:50:42.597Z,81.13
2022-10-02T06:53:55.041Z,80.75
2022-10-02T06:56:37.450Z,81.61
2022-10-02T06:59:35.047Z,81.84
2022-10-02T07:02:23.716Z,83.06
2022-10-02T07:05:20.373Z,82.80
2022-10-02T07:08:12.380Z,82.18
2022-10-02T07:10:46.773Z,82.51
2022-10-02T07:13:22.918Z,81.88
2022-10-02T07:16:09.444Z,81.84
2022-10-02T07:18:55.524Z,82.00
2022-10-02T07:21:46.563Z,81.80
2022-10-02T07:24:44.049Z,81.60
2022-10-02T07:27:37.137Z,81.28
2022-10-02T07:30:14.039Z,81.76
2022-10-02T07:33:02.093Z,81.76
2022-10-02T07:35:44.568Z,81.86
2022-10-02T07:38:21.158Z,81.78
2022-10-02T07:41:01.976Z,81.14
2022-10-02T07:43:44.295Z,81.75
2022-10-02T07:46:23.752Z,81.18
2022-10-02T07:48:57.456Z,81.70
2022-10-02T07:51:47.704Z,82.21
2022-10-02T07:54:43.022Z,81.97
2022-10-02T07:57:36.492Z,82.09
2022-10-02T08:00:26.582Z,81.44
2022-10-02T08:03:01.051Z,81.79
2022-10-02T08:05:38.318Z,81.72
2022-10-02T08:08:26.257Z,81.96
2022-10-02T08:11:09.641Z,81.80
2022-10-02T08:13:45.955Z,81.02
2022-10-02T08:16:17.758Z,81.28
2022-10-02T08:19:01.763Z,81.15
2022-10-02T08:21:38.816Z,81.17
2022-10-02T08:24:28.316Z,81.48
2022-10-02T08:27:05.210Z,81.02
2022-10-02T08:30:02.402Z,80.57
2022-10-02T08:32:35.000Z,80.94
2022-10-02T08:35:12.176Z,81.64
2022-10-02T08:38:05.098Z,81.34
2022-10-02T08:41:17.115Z,81.40
2022-10-02T08:43:54.066Z,81.20
2022-10-02T08:47:00.008Z,81.24
2022-10-02T08:49:33.715Z,81.02
2022-10-02T08:52:45.298Z,80.20
2022-10-02T08:55:52.535Z,80.84
2022-10-02T08:58:58.442Z,80.63
2022-10-02T09:02:02.344Z,80.66
2022-10-02T09:05:00.894Z,79.86
2022-10-02T09:07:59.064Z,80.06
2022-10-02T09:10:45.908Z,80.69
2022-10-02T09:13:40.420Z,80.36
2022-10-02T09:16:41.854Z,80.28
2022-10-02T09:19:12.558Z,80.10
2022-10-02T09:21:59.147Z,81.51
2022-10-02T09:24:29.977Z,80.74
2022-10-02T09:27:13.644Z,79.64
2022-10-02T09:30:18.405Z,78.93
2022-10-02T09:33:21.243Z,79.83
2022-10-02T09:36:09.405Z,79.49
2022-10-02T09:38:55.702Z,80.28
2022-10-02T09:41:50.665Z,79.80
2022-10-02T09:45:07.578Z,79.74
2022-10-02T09:48:01.692Z,80.02
2022-10-02T09:51:04.890Z,79.87
2022-10-02T09:53:36.622Z,79.62
2022-10-02T09:56:35.308Z,79.27
2022-10-02T09:59:21.380Z,78.88
2022-10-02T10:02:30.531Z,78.50
2022-10-02T10:05:17.080Z,79.62
2022-10-02T10:08:10.857Z,78.93
2022-10-02T10:10:54.036Z,78.84
2022-10-02T10:14:03.304Z,78.39
2022-10-02T10:16:38.337Z,79.53
2022-10-02T10:19:24.767Z,79.90
2022-10-02T10:22:33.936Z,80.34
2022-10-02T10:25:28.377Z,80.25
2022-10-02T10:28:28.582Z,79.91
2022-10-02T10:31:13.014Z,80.19
2022-10-02T10:33:59.852Z,79.36
2022-10-02T10:36:55.327Z,80.25
2022-10-02T10:39:41.942Z,80.61
2022-10-02T10:42:49.987Z,79.88
2022-10-02T10:45:55.306Z,78.28
2022-10-02T10:48:49.180Z,79.30
2022-10-02T10:51:30.653Z,79.17
2022-10-02T10:54:31.340Z,78.82
2022-10-02T10:57:29.483Z,77.42
2022-10-02T10:59:59.931Z,76.92
2022-10-02T11:03:04.910Z,75.96
2022-10-02T11:05:54.150Z,76.79
2022-10-02T11:08:36.612Z,77.60
2022-10-02T11:11:23.297Z,77.16
2022-10-02T11:14:12.817Z,77.29
2022-10-02T11:17:07.972Z,78.06
2022-10-02T11:19:48.770Z,77.03
2022-10-02T11:22:40.677Z,77.11
2022-10-02T11:25:30.339Z,76.57
2022-10-02T11:27:57.968Z,77.72
2022-10-02T11:31:03.246Z,77.26
2022-10-02T11:33:45.142Z,77.58
2022-10-02T11:36:30.571Z,76.45
2022-10-02T11:39:33.764Z,76.67
2022-10-02T11:42:13.166Z,76.37
2022-10-02T11:45:04.881Z,74.99
2022-10-02T11:47:51.141Z,75.05
2022-10-02T11:50:29.243Z,76.36
2022-10-02T11:53:16.182Z,77.25
2022-10-02T11:56:15.150Z,75.52
2022-10-02T11:59:23.110Z,76.14
2022-10-02T12:02:01.893Z,75.82
2022-10-02T12:04:33.933Z,76.41
2022-10-02T12:07:40.482Z,74.57
2022-10-02T12:10:37.431Z,73.93
2022-10-02T12:13:24.795Z,74.04
2022-10-02T12:16:17.137Z,72.99
2022-10-02T12:18:56.267Z,72.45
2022-10-02T12:21:48.761Z,72.97
2022-10-02T12:25:00.337Z,74.48
2022-10-02T12:27:54.755Z,73.36
2022-10-02T12:30:40.766Z,71.44
2022-10-02T12:33:17.806Z,72.50
2022-10-02T12:35:58.355Z,71.76
2022-10-02T12:39:04.635Z,70.78
2022-10-02T12:41:52.278Z,71.70
2022-10-02T12:44:47.708Z,71.09
2022-10-02T12:47:33.482Z,72.73
2022-10-02T12:50:13.030Z,72.54
2022-10-02T12:53:16.008Z,72.99
2022-10-02T12:56:14.729Z,72.44
2022-10-02T12:59:19.561Z,71.39
2022-10-02T13:02:06.329Z,71.11
2022-10-02T13:04:52.873Z,72.64
2022-10-02T13:07:49.907Z,73.05
2022-10-02T13:10:23.619Z,71.73
2022-10-02T13:13:26.203Z,72.18
2022-10-02T13:16:22.956Z,72.76
2022-10-02T13:19:09.475Z,72.87
2022-10-02T13:21:43.038Z,72.96
2022-10-02T13:24:45.355Z,72.33
2022-10-02T13:27:37.854Z,71.60
2022-10-02T13:30:24.524Z,72.23
2022-10-02T13:33:25.602Z,70.84
2022-10-02T13:36:04.527Z,71.39
2022-10-02T13:38:48.117Z,71.81
2022-10-02T13:41:31.232Z,72.04
2022-10-02T13:44:05.028Z,72.84
2022-10-02T13:47:03.145Z,71.23
2022-10-02T13:49:48.004Z,73.09
2022-10-02T13:52:18.297Z,73.30
2022-10-02T13:55:12.049Z,72.85
2022-10-02T13:58:10.938Z,74.21
2022-10-02T14:00:38.554Z,73.67
2022-10-02T14:03:33.465Z,74.72
2022-10-02T14:06:20.734Z,73.33
2022-10-02T14:09:16.258Z,73.81
2022-10-02T14:12:06.146Z,74.30
2022-10-02T14:14:49.245Z,73.73
2022-10-02T14:17:46.502Z,74.86
2022-10-02T14:20:29.628Z,75.18
2022-10-02T14:23:19.117Z,75.50
2022-10-02T14:26:06.759Z,75.31
2022-10-02T14:28:53.028Z,74.71
2022-10-02T14:31:39.716Z,73.68
2022-10-02T14:34:32.027Z,74.29
2022-10-02T14:37:26.906Z,74.20
2022-10-02T14:39:59.866Z,73.55
2022-10-02T14:42:53.953Z,74.79
2022-10-02T14:46:10.052Z,75.14
2022-10-02T14:49:01.961Z,75.49
2022-10-02T14:52:07.310Z,75.03
2022-10-02T14:54:53.510Z,74.99
2022-10-02T14:57:39.891Z,75.06
2022-10-02T15:00:18.333Z,75.96
2022-10-02T15:02:57.367Z,76.31
2022-10-02T15:05:28.460Z,76.05
2022-10-02T15:07:57.847Z,75.38
2022-10-02T15:10:38.613Z,74.81
2022-10-02T15:13:37.662Z,73.83
2022-10-02T15:16:42.808Z,74.81
2022-10-02T15:19:33.295Z,73.18
2022-10-02T15:22:25.007Z,73.37
2022-10-02T15:24:59.415Z,72.71
2022-10-02T15:27:32.683Z,73.66
2022-10-02T15:30:23.204Z,74.31
2022-10-02T15:33:36.792Z,74.96
2022-10-02T15:36:49.287Z,75.00
2022-10-02T15:39:28.261Z,75.72
2022-10-02T15:42:08.837Z,76.57
2022-10-02T15:45:02.542Z,76.38
2022-10-02T15:47:52.444Z,76.57
2022-10-02T15:50:45.141Z,76.09
2022-10-02T15:53:27.940Z,76.26
2022-10-02T15:56:27.224Z,76.04
2022-10-02T15:59:21.730Z,76.19
2022-10-02T16:02:16.707Z,75.78
2022-10-02T16:05:25.615Z,75.59
2022-10-02T16:08:21.391Z,75.85
2022-10-02T16:10:57.904Z,76.05
2022-10-02T16:13:48.218Z,75.99
2022-10-02T16:16:32.219Z,75.13
2022-10-02T16:19:18.960Z,75.34
2022-10-02T16:22:29.184Z,76.35
2022-10-02T16:25:12.951Z,76.48
2022-10-02T16:28:09.222Z,76.65
2022-10-02T16:31:06.028Z,75.95
2022-10-02T16:33:51.866Z,76.25
2022-10-02T16:36:33.714Z,76.57
2022-10-02T16:39:20.882Z,76.86
2022-10-02T16:42:20.519Z,77.08
2022-10-02T16:44:57.036Z,76.87
2022-10-02T16:47:54.999Z,77.50
2022-10-02T16:50:44.473Z,77.00
2022-10-02T16:53:41.414Z,77.89
2022-10-02T16:56:23.550Z,78.70
2022-10-02T16:59:28.854Z,78.39
2022-10-02T17:02:17.735Z,79.23
2022-10-02T17:04:57.706Z,79.72
2022-10-02T17:08:06.045Z,80.09
2022-10-02T17:10:46.481Z,79.89
2022-10-02T17:13:44.777Z,79.80
2022-10-02T17:16:22.097Z,81.22
2022-10-02T17:18:57.238Z,81.88
2022-10-02T17:22:03.966Z,82.53
2022-10-02T17:25:02.300Z,82.46
2022-10-02T17:28:19.511Z,82.50
2022-10-02T17:31:08.203Z,82.99
2022-10-02T17:33:51.738Z,82.82
2022-10-02T17:37:02.588Z,82.86
2022-10-02T17:39:57.450Z,82.98
2022-10-02T17:42:47.173Z,82.86
2022-10-02T17:45:34.917Z,82.83
2022-10-02T17:48:17.851Z,82.83
2022-10-02T17:50:57.041Z,82.69
2022-10-02T17:54:14.321Z,82.58
2022-10-02T17:56:50.020Z,82.55
2022-10-02T17:59:55.102Z,82.60
2022-10-02T18:03:01.782Z,82.95
2022-10-02T18:05:57.538Z,82.63
2022-10-02T18:08:57.891Z,82.13
2022-10-02T18:12:06.067Z,82.31
2022-10-02T18:14:46.761Z,82.57
2022-10-02T18:17:26.871Z,82.93
2022-10-02T18:20:19.326Z,83.27
2022-10-02T18:23:15.432Z,83.71
2022-10-02T18:25:52.453Z,83.56
2022-10-02T18:28:59.405Z,83.15
2022-10-02T18:31:55.729Z,83.57
2022-10-02T18:34:54.141Z,84.02
2022-10-02T18:37:39.958Z,83.79
2022-10-02T18:40:25.929Z,83.73
2022-10-02T18:43:06.203Z,83.61
2022-10-02T18:45:46.063Z,83.09
2022-10-02T18:48:38.531Z,82.82
2022-10-02T18:51:14.943Z,82.71
2022-10-02T18:53:59.126Z,82.50
2022-10-02T18:56:57.159Z,82.26
2022-10-02T18:59:44.937Z,81.56
2022-10-02T19:02:34.026Z,81.28
2022-10-02T19:05:23.794Z,81.02
2022-10-02T19:08:03.546Z,81.40
2022-10-02T19:10:34.322Z,80.95
2022-10-02T19:13:21.614Z,80.07
2022-10-02T19:15:53.071Z,79.38
2022-10-02T19:18:27.084Z,79.17
2022-10-02T19:21:06.798Z,78.56
2022-10-02T19:23:38.296Z,78.34
2022-10-02T19:26:26.299Z,77.88
2022-10-02T19:29:06.147Z,77.64
2022-10-02T19:31:41.975Z,77.56
2022-10-02T19:34:20.708Z,77.54
2022-10-02T19:36:54.445Z,77.73
2022-10-02T19:39:30.662Z,78.04
2022-10-02T19:42:03.288Z,78.34
2022-10-02T19:44:40.308Z,78.46
2022-10-02T19:47:38.239Z,78.89
2022-10-02T19:50:17.389Z,79.28
2022-10-02T19:52:51.813Z,79.12
2022-10-02T19:55:32.841Z,79.09
2022-10-02T19:58:23.449Z,79.17
2022-10-02T20:00:53.886Z,79.15
2022-10-02T20:03:26.301Z,78.99
2022-10-02T20:06:00.442Z,79.04
2022-10-02T20:08:36.258Z,79.22
2022-10-02T20:11:20.089Z,79.25
2022-10-02T20:14:17.913Z,79.30
2022-10-02T20:17:04.198Z,78.76
2022-10-02T20:19:46.003Z,79.43
2022-10-02T20:22:34.761Z,79.53
2022-10-02T20:25:30.158Z,79.47
2022-10-02T20:28:17.360Z,79.38
2022-10-02T20:30:51.938Z,79.22
2022-10-02T20:33:26.340Z,79.06
2022-10-02T20:36:06.411Z,79.03
2022-10-02T20:38:49.981Z,78.96
2022-10-02T20:41:34.048Z,78.56
2022-10-02T20:44:06.431Z,78.48
2022-10-02T20:46:44.777Z,78.30
2022-10-02T20:49:27.696Z,78.29
2022-10-02T20:52:14.540Z,78.14
2022-10-02T20:55:01.944Z,77.81
2022-10-02T20:58:07.758Z,78.77
2022-10-02T21:01:03.305Z,78.60
2022-10-02T21:03:37.090Z,78.93
2022-10-02T21:06:23.095Z,78.85
2022-10-02T21:09:16.342Z,79.06
2022-10-02T21:12:22.339Z,79.19
2022-10-02T21:15:11.290Z,79.24
2022-10-02T21:17:53.902Z,78.94
2022-10-02T21:20:50.123Z,78.73
2022-10-02T21:23:50.141Z,78.67
2022-10-02T21:26:39.340Z,79.22
2022-10-02T21:29:55.157Z,79.39
2022-10-02T21:32:28.925Z,79.12
2022-10-02T21:35:26.508Z,79.04
2022-10-02T21:38:20.008Z,78.93
2022-10-02T21:41:14.910Z,78.67
2022-10-02T21:43:48.201Z,78.90
2022-10-02T21:46:53.423Z,78.74
2022-10-02T21:49:58.703Z,79.19
2022-10-02T21:53:04.234Z,79.50
2022-10-02T21:55:51.342Z,80.32
2022-10-02T21:59:01.783Z,80.92
2022-10-02T22:02:04.211Z,80.69
2022-10-02T22:04:52.723Z,80.67
2022-10-02T22:07:50.987Z,80.33
2022-10-02T22:10:57.826Z,80.14
2022-10-02T22:13:38.790Z,79.82
2022-10-02T22:16:41.535Z,79.72
2022-10-02T22:19:58.557Z,79.59
2022-10-02T22:22:51.117Z,79.26
2022-10-02T22:25:32.324Z,79.87
2022-10-02T22:28:42.254Z,79.86
2022-10-02T22:31:12.949Z,80.40
2022-10-02T22:34:08.822Z,80.24
2022-10-02T22:36:51.631Z,80.16
2022-10-02T22:39:52.480Z,80.14
2022-10-02T22:42:32.119Z,80.05
2022-10-02T22:45:17.090Z,79.87
2022-10-02T22:48:06.015Z,79.77
2022-10-02T22:50:48.158Z,79.95
2022-10-02T22:53:28.020Z,80.30
2022-10-02T22:55:57.420Z,80.16
2022-10-02T22:58:56.609Z,79.94
2022-10-02T23:01:46.448Z,79.67
2022-10-02T23:04:58.505Z,79.91
2022-10-02T23:08:26.158Z,79.81
2022-10-02T23:11:07.217Z,79.66
2022-10-02T23:13:50.978Z,79.48
2022-10-02T23:16:42.857Z,79.86
2022-10-02T23:19:29.134Z,79.60
2022-10-02T23:22:09.008Z,79.72
2022-10-02T23:24:52.066Z,79.83
2022-10-02T23:27:35.642Z,79.84
2022-10-02T23:30:17.619Z,79.88
2022-10-02T23:33:13.344Z,79.84
2022-10-02T23:36:06.899Z,80.14
2022-10-02T23:38:53.044Z,80.50
2022-10-02T23:41:37.526Z,80.46
2022-10-02T23:44:30.162Z,80.53
2022-10-02T23:47:26.445Z,80.55
2022-10-02T23:49:59.606Z,80.60
2022-10-02T23:52:39.015Z,80.91
2022-10-02T23:55:27.990Z,80.92
2022-10-02T23:58:14.289Z,81.13
